This is the latest recevied weather packets stored in our database for station/object KQ4LLM. If no packets are shown the sender has not sent any weather packets the latest 1 day(s).
| Time | Temp. | Humidity | Pressure | Rain* | Wind** | Luminosity | Snow |
|---|---|---|---|---|---|---|---|
| 1778083051 | 21.11° C | 75% | - | 0 mm | - | - | - |
| 1778081615 | 20.56° C | 77% | - | 0 mm | - | - | - |
| 1778080404 | 20° C | 77% | - | 0 mm | - | - | - |
| 1778080101 | 20° C | 77% | - | 0 mm | - | - | - |
| 1778079798 | 20° C | 77% | - | 0 mm | - | - | - |
| 1778079191 | 20.56° C | 75% | - | 0 mm | - | - | - |
| 1778078585 | 20.56° C | 75% | - | 0 mm | - | - | - |
| 1778077980 | 20.56° C | 76% | - | 0 mm | - | - | - |
| 1778076772 | 20° C | 77% | - | 0 mm | - | - | - |
| 1778076166 | 20° C | 76% | - | 0 mm | - | - | - |
| 1778074953 | 19.44° C | 77% | - | 0 mm | - | - | - |
| 1778071924 | 17.78° C | 81% | - | 0 mm | - | - | - |
| 1778069807 | 18.33° C | 80% | - | 0 mm | - | - | - |
| 1778069503 | 18.33° C | 80% | - | 0 mm | - | - | - |
| 1778068898 | 17.78° C | 80% | - | 0 mm | - | - | - |
| 1778066176 | 17.78° C | 79% | - | 0 mm | - | - | - |
| 1778064964 | 17.78° C | 80% | - | 0 mm | - | - | - |
| 1778063754 | 17.78° C | 80% | - | 0 mm | - | - | - |
| 1778063450 | 17.78° C | 80% | - | 0 mm | - | - | - |
| 1778062846 | 17.78° C | 80% | - | 0 mm | - | - | - |
| 1778061938 | 17.78° C | 80% | - | 0 mm | - | - | - |
| 1778061030 | 17.78° C | 79% | - | 0 mm | - | - | - |
| 1778060728 | 17.78° C | 79% | - | 0 mm | - | - | - |
| 1778060124 | 17.78° C | 80% | - | 0 mm | - | - | - |
| 1778059821 | 17.78° C | 79% | - | 0 mm | - | - | - |
* Rain latest hour (hover to see other rain measurements)
** Current wind speed in m/s (hover to see current wind gust speed)